Time;durP1;ratioP1;P1;durP2;ratioP2;P2;SDS_P1;SDS_P2;PMS_P1;PMS_P2;Temp;Humidity;BMP_temperature;BMP_pressure;BME280_temperature;BME280_humidity;BME280_pressure;Samples;Min_cycle;Max_cycle;Signal;HPM_P1;HPM_P2
2022/06/06 00:00:51;;;;;;;16.85;12.50;;;;;;;20.51;69.61;101146.16;5011388;28;20088;-70
2022/06/06 00:03:18;;;;;;;22.85;15.02;;;;;;;20.07;70.00;101157.00;5011136;28;20064;-71
2022/06/06 00:05:48;;;;;;;23.45;15.75;;;;;;;20.48;69.51;101146.69;5011364;28;20026;-69
2022/06/06 00:08:14;;;;;;;32.28;20.50;;;;;;;20.33;69.74;101143.25;5003084;28;20046;-69
2022/06/06 00:10:42;;;;;;;32.17;20.27;;;;;;;20.45;69.72;101133.63;5011734;28;20014;-69
2022/06/06 00:13:09;;;;;;;35.97;22.83;;;;;;;20.35;69.21;101135.59;5011041;28;20554;-69
2022/06/06 00:15:34;;;;;;;27.10;17.80;;;;;;;20.17;69.83;101138.97;5010859;28;20037;-68
2022/06/06 00:18:01;;;;;;;39.50;24.10;;;;;;;20.71;68.22;101129.63;5011026;28;20030;-71
2022/06/06 00:20:27;;;;;;;38.55;24.48;;;;;;;20.57;68.60;101133.28;5010593;28;20107;-71
2022/06/06 00:22:53;;;;;;;44.33;26.10;;;;;;;20.33;69.39;101133.16;5011779;28;20045;-70
2022/06/06 00:25:18;;;;;;;46.88;27.52;;;;;;;20.56;68.67;101145.31;5011187;28;20030;-70
2022/06/06 00:27:44;;;;;;;43.55;28.50;;;;;;;20.83;68.14;101146.44;5011244;28;20044;-69
2022/06/06 00:30:09;;;;;;;44.63;27.98;;;;;;;20.40;68.72;101147.28;5010947;28;20045;-71
2022/06/06 00:35:20;;;;;;;40.70;25.88;;;;;;;20.44;69.19;101144.84;5011018;28;20136;-69
2022/06/06 00:37:47;;;;;;;43.67;25.60;;;;;;;20.14;69.96;101148.53;5011246;28;20022;-68
2022/06/06 00:40:14;;;;;;;44.50;25.27;;;;;;;19.96;69.82;101160.06;5010936;28;20045;-68
2022/06/06 00:42:41;;;;;;;27.88;17.33;;;;;;;19.53;71.18;101158.03;5010674;28;20049;-68
2022/06/06 00:45:12;;;;;;;35.80;21.88;;;;;;;20.04;69.22;101149.41;5010627;28;20026;-70
2022/06/06 00:47:38;;;;;;;39.10;21.65;;;;;;;19.72;70.16;101154.44;5010702;28;20053;-70
2022/06/06 00:50:14;;;;;;;28.08;17.20;;;;;;;19.44;71.37;101159.69;5010061;28;20087;-71
2022/06/06 00:52:42;;;;;;;35.13;20.55;;;;;;;19.62;69.90;101156.34;5011431;28;20029;-70
2022/06/06 00:55:16;;;;;;;35.33;20.15;;;;;;;19.52;69.93;101134.59;5010586;28;20038;-68
2022/06/06 00:57:46;;;;;;;39.80;21.20;;;;;;;19.91;68.67;101165.56;5010542;28;20038;-67
2022/06/06 01:00:14;;;;;;;;;;;;;;;19.62;69.94;101153.63;5011352;28;20113;-69
2022/06/06 01:02:42;;;;;;;41.60;23.77;;;;;;;19.57;69.31;101159.94;5010379;28;20056;-68
2022/06/06 01:05:08;;;;;;;41.03;24.10;;;;;;;19.54;69.92;101163.19;5010475;28;20083;-68
2022/06/06 01:07:34;;;;;;;45.53;25.08;;;;;;;19.18;70.87;101154.22;5011079;28;20144;-70
2022/06/06 01:09:59;;;;;;;52.17;27.85;;;;;;;19.48;70.36;101156.13;5010578;28;20030;-70
2022/06/06 01:12:25;;;;;;;58.70;32.35;;;;;;;20.03;67.79;101152.38;5010741;28;20116;-70
2022/06/06 01:15:05;;;;;;;66.43;31.73;;;;;;;19.59;69.01;101154.19;5010749;28;20498;-67
2022/06/06 01:17:51;;;;;;;59.10;29.52;;;;;;;19.70;68.92;101150.34;5010512;28;20054;-69
2022/06/06 01:20:41;;;;;;;70.32;33.97;;;;;;;19.48;69.24;101160.78;5006343;28;20687;-73
2022/06/06 01:23:15;;;;;;;45.13;25.17;;;;;;;19.28;69.99;101167.06;5010997;28;20108;-69
2022/06/06 01:25:59;;;;;;;61.45;26.58;;;;;;;19.28;70.05;101159.66;5032374;28;20477;-70
2022/06/06 01:28:41;;;;;;;53.17;23.23;;;;;;;19.29;68.84;101174.94;5034630;28;20040;-72
2022/06/06 01:31:12;;;;;;;43.03;21.40;;;;;;;19.18;69.48;101167.06;5034119;28;20041;-68
2022/06/06 01:34:08;;;;;;;44.25;20.02;;;;;;;19.41;68.09;101173.84;5034096;28;20047;-72
2022/06/06 01:36:34;;;;;;;42.22;21.70;;;;;;;19.38;68.50;101168.97;4934073;29;20066;-70
2022/06/06 01:39:05;;;;;;;44.42;21.80;;;;;;;19.54;68.04;101173.28;4934066;29;20046;-71
2022/06/06 01:41:43;;;;;;;53.40;22.88;;;;;;;19.50;67.86;101175.75;4933956;29;20071;-70
2022/06/06 01:44:54;;;;;;;44.65;20.88;;;;;;;18.80;70.03;101171.16;4933836;29;20043;-70
2022/06/06 01:47:43;;;;;;;37.85;20.15;;;;;;;18.79;70.24;101172.22;4920162;29;20630;-68
2022/06/06 01:50:09;;;;;;;49.38;23.63;;;;;;;19.24;68.27;101169.50;4915153;29;20131;-69
2022/06/06 01:52:56;;;;;;;47.15;22.08;;;;;;;18.84;69.64;101187.75;4915244;29;20143;-70
2022/06/06 01:55:25;;;;;;;47.85;23.27;;;;;;;19.32;68.85;101184.47;4914643;29;20572;-69
2022/06/06 01:57:52;;;;;;;56.22;24.65;;;;;;;19.36;68.12;101185.56;4915046;29;20048;-70
2022/06/06 02:00:17;;;;;;;55.95;23.92;;;;;;;19.40;67.69;101191.31;4915170;29;20107;-68
2022/06/06 02:02:43;;;;;;;54.85;23.63;;;;;;;18.77;70.22;101188.00;4915598;29;20097;-70
2022/06/06 02:05:11;;;;;;;58.22;24.80;;;;;;;19.07;69.96;101190.75;4915523;29;20559;-70
2022/06/06 02:07:38;;;;;;;57.78;22.45;;;;;;;19.20;69.08;101182.03;4915725;29;20047;-69
2022/06/06 02:10:04;;;;;;;47.42;20.60;;;;;;;19.00;69.54;101182.06;4915629;29;20044;-68
2022/06/06 02:12:29;;;;;;;48.58;19.50;;;;;;;19.25;68.71;101186.66;4930157;28;20045;-70
2022/06/06 02:14:54;;;;;;;55.92;23.63;;;;;;;18.91;69.65;101182.84;5014791;28;20037;-69
2022/06/06 02:17:20;;;;;;;51.47;21.20;;;;;;;19.50;68.09;101183.13;5014161;28;20486;-68
2022/06/06 02:19:45;;;;;;;53.15;17.67;;;;;;;18.77;68.85;101189.94;5010762;28;20021;-69
2022/06/06 02:22:10;;;;;;;46.97;19.65;;;;;;;18.40;70.62;101182.75;5013643;28;20580;-68
2022/06/06 02:24:36;;;;;;;46.42;19.00;;;;;;;18.72;69.59;101179.84;5014406;28;20045;-68
2022/06/06 02:27:01;;;;;;;46.03;20.40;;;;;;;19.03;67.90;101183.38;5014314;28;20513;-67
2022/06/06 02:29:27;;;;;;;40.95;18.10;;;;;;;19.05;67.98;101182.03;5014525;28;20041;-67
2022/06/06 02:31:52;;;;;;;44.47;18.85;;;;;;;18.71;68.83;101178.19;4997370;28;20042;-66
2022/06/06 02:34:18;;;;;;;39.03;15.98;;;;;;;18.60;69.13;101178.47;5014235;28;20401;-68
2022/06/06 02:36:43;;;;;;;49.95;18.17;;;;;;;18.89;68.67;101187.75;5013226;28;20038;-65
2022/06/06 02:39:09;;;;;;;32.00;16.55;;;;;;;18.51;68.99;101185.53;5014086;28;20626;-68
2022/06/06 02:41:34;;;;;;;39.10;18.20;;;;;;;18.60;69.10;101192.88;5014154;28;20040;-70
2022/06/06 02:43:59;;;;;;;44.40;19.10;;;;;;;18.66;69.50;101185.53;5014325;28;20042;-67
2022/06/06 02:46:25;;;;;;;45.20;20.58;;;;;;;19.11;67.75;101193.75;5014073;28;20026;-68
2022/06/06 02:48:50;;;;;;;36.88;17.42;;;;;;;18.96;67.81;101189.13;5012335;28;20482;-69
2022/06/06 02:51:16;;;;;;;42.15;16.55;;;;;;;18.85;68.58;101189.41;5013671;28;20628;-68
2022/06/06 02:53:41;;;;;;;54.45;20.35;;;;;;;19.04;67.49;101195.94;5007747;28;20055;-69
2022/06/06 02:56:07;;;;;;;38.08;15.70;;;;;;;18.37;70.44;101204.25;4995385;28;20042;-68
2022/06/06 02:58:32;;;;;;;35.05;15.40;;;;;;;18.70;69.13;101197.53;4994598;28;20043;-68
2022/06/06 03:01:01;;;;;;;26.95;12.23;;;;;;;17.67;72.40;101204.72;4994095;28;20057;-71
2022/06/06 03:03:27;;;;;;;36.35;16.55;;;;;;;18.54;69.64;101199.41;4993812;28;20034;-68
2022/06/06 03:06:05;;;;;;;29.85;14.07;;;;;;;18.45;69.52;101197.47;4994009;28;20249;-69
2022/06/06 03:08:41;;;;;;;33.90;15.80;;;;;;;18.86;68.08;101200.03;4993983;28;20053;-70
2022/06/06 03:11:14;;;;;;;38.92;16.42;;;;;;;19.01;67.66;101197.28;4993884;28;20034;-68
2022/06/06 03:14:16;;;;;;;38.40;17.48;;;;;;;18.81;67.51;101196.47;4994226;28;20136;-69
2022/06/06 03:23:27;;;;;;;30.88;16.35;;;;;;;18.78;67.82;101195.09;4993440;28;20449;-69
2022/06/06 03:25:59;;;;;;;31.15;15.05;;;;;;;18.60;68.15;101192.06;4993776;28;20042;-69
2022/06/06 03:28:30;;;;;;;30.80;16.52;;;;;;;19.19;65.61;101199.47;4993385;28;20042;-69
2022/06/06 03:31:26;;;;;;;35.60;16.90;;;;;;;18.68;67.04;101186.91;4993351;28;20069;-70
2022/06/06 03:34:07;;;;;;;28.55;15.50;;;;;;;19.26;65.75;101191.03;4993378;28;20096;-68
2022/06/06 03:36:46;;;;;;;37.53;14.65;;;;;;;19.34;65.91;101192.41;4975734;28;20609;-69
2022/06/06 03:40:01;;;;;;;34.50;15.90;;;;;;;19.46;64.93;101190.22;4992908;28;20069;-69
2022/06/06 03:42:36;;;;;;;31.10;14.98;;;;;;;19.12;66.04;101198.91;4951781;28;20046;-67
2022/06/06 03:45:19;;;;;;;37.42;17.08;;;;;;;19.17;65.97;101200.84;4951610;28;20459;-68
2022/06/06 03:48:22;;;;;;;37.03;16.48;;;;;;;18.99;65.92;101204.91;4951477;28;20035;-68
2022/06/06 03:50:56;;;;;;;31.83;16.23;;;;;;;19.26;65.00;101207.38;4951749;28;20578;-69
2022/06/06 03:53:43;;;;;;;33.30;15.00;;;;;;;19.66;63.74;101215.53;4951126;29;20042;-68
2022/06/06 03:56:34;;;;;;;30.02;16.65;;;;;;;18.93;65.34;101206.00;4969219;28;20153;-69
2022/06/06 03:59:00;;;;;;;34.92;14.88;;;;;;;19.33;64.27;101215.28;4954844;28;20047;-67
2022/06/06 04:01:26;;;;;;;28.02;15.20;;;;;;;19.45;63.73;101218.56;4968430;28;20034;-68
2022/06/06 04:03:53;;;;;;;32.67;15.95;;;;;;;20.17;61.66;101211.53;4970448;28;20062;-67
2022/06/06 04:06:19;;;;;;;36.83;18.35;;;;;;;18.76;66.35;101223.69;4970369;28;20101;-68
2022/06/06 04:08:45;;;;;;;35.28;16.42;;;;;;;18.78;66.29;101224.22;4969909;28;20057;-67
2022/06/06 04:11:28;;;;;;;42.45;19.73;;;;;;;19.44;64.54;101211.50;4969998;28;20035;-68
2022/06/06 04:14:49;;;;;;;33.15;17.33;;;;;;;19.58;63.74;101207.91;4999488;28;20137;-68
2022/06/06 04:17:36;;;;;;;;;;;;;;;19.02;65.16;101209.00;4913001;29;20048;-71
2022/06/06 04:20:23;;;;;;;37.03;17.08;;;;;;;19.73;63.40;101210.63;4912585;29;20352;-68
2022/06/06 04:23:13;;;;;;;39.80;18.52;;;;;;;18.97;65.79;101211.72;4929580;29;20024;-69
2022/06/06 04:25:57;;;;;;;36.92;18.40;;;;;;;19.04;65.72;101215.00;4932185;29;20055;-69
2022/06/06 04:28:32;;;;;;;37.55;18.42;;;;;;;19.77;63.47;101217.13;4950571;29;20432;-69
2022/06/06 04:31:03;;;;;;;35.70;18.65;;;;;;;19.29;65.16;101215.00;4951190;29;20051;-68
2022/06/06 04:33:40;;;;;;;37.53;17.98;;;;;;;19.48;64.54;101207.13;4948089;29;20118;-68
2022/06/06 04:36:16;;;;;;;43.70;20.85;;;;;;;19.17;65.48;101220.72;4931440;29;20036;-68
2022/06/06 04:38:48;;;;;;;33.15;17.25;;;;;;;19.05;65.77;101206.56;4931602;29;20044;-69
2022/06/06 04:41:27;;;;;;;39.88;18.42;;;;;;;19.34;64.53;101214.22;4931834;29;20031;-68
2022/06/06 04:43:58;;;;;;;34.55;17.02;;;;;;;19.69;63.71;101211.44;4932100;29;20397;-68
2022/06/06 04:46:57;;;;;;;36.13;18.50;;;;;;;19.84;62.59;101217.66;4931681;29;20043;-68
2022/06/06 04:49:25;;;;;;;34.17;17.15;;;;;;;19.37;64.46;101222.66;4913113;29;20131;-70
2022/06/06 04:51:52;;;;;;;29.60;16.42;;;;;;;19.53;63.79;101226.19;4997421;28;20144;-69
2022/06/06 04:54:21;;;;;;;24.80;14.18;;;;;;;18.75;66.24;101220.13;5011589;28;20056;-69
2022/06/06 04:56:48;;;;;;;40.42;16.95;;;;;;;19.07;65.05;101228.06;5011492;28;20378;-69
2022/06/06 04:59:15;;;;;;;30.95;16.45;;;;;;;19.76;62.97;101229.13;5011526;28;20145;-69
2022/06/06 05:01:41;;;;;;;30.95;15.98;;;;;;;19.91;62.97;101226.34;5018117;28;20037;-68
2022/06/06 05:04:08;;;;;;;33.17;16.35;;;;;;;19.45;63.92;101240.38;5017981;28;20038;-68
2022/06/06 05:07:02;;;;;;;28.65;14.82;;;;;;;19.05;64.58;101225.63;5018262;28;20385;-68
2022/06/06 05:09:46;;;;;;;19.92;11.02;;;;;;;18.50;66.23;101244.56;4976153;28;20360;-71
2022/06/06 05:12:39;;;;;;;25.58;14.38;;;;;;;19.37;63.75;101236.28;4976486;28;20122;-68
2022/06/06 05:15:41;;;;;;;20.92;11.82;;;;;;;19.68;63.30;101235.16;4975456;28;20544;-69
2022/06/06 05:18:47;;;;;;;22.80;13.02;;;;;;;19.12;64.87;101247.16;4956894;28;20050;-70
2022/06/06 05:21:36;;;;;;;22.63;11.90;;;;;;;19.25;64.17;101255.63;4960497;28;20043;-67
2022/06/06 05:24:33;;;;;;;23.92;11.70;;;;;;;19.27;63.87;101247.97;4975979;28;20039;-69
2022/06/06 05:27:33;;;;;;;29.05;14.77;;;;;;;19.44;63.53;101245.00;4918435;29;20039;-68
2022/06/06 05:30:33;;;;;;;28.63;14.68;;;;;;;19.67;63.00;101252.63;4918580;29;20035;-67
2022/06/06 05:33:11;;;;;;;24.73;12.75;;;;;;;19.27;63.47;101261.59;4899591;29;20134;-69
2022/06/06 05:36:27;;;;;;;23.35;13.55;;;;;;;19.95;61.87;101262.91;4899577;29;20644;-66
2022/06/06 05:39:31;;;;;;;30.05;14.43;;;;;;;19.97;61.68;101255.25;4868191;29;20465;-68
2022/06/06 05:42:30;;;;;;;31.27;15.10;;;;;;;20.08;61.50;101251.44;4880760;29;20117;-68
2022/06/06 05:45:16;;;;;;;30.08;14.30;;;;;;;20.42;60.64;101246.09;4885738;29;20097;-72
2022/06/06 05:48:04;;;;;;;24.52;14.93;;;;;;;20.38;60.81;101274.28;4937023;29;20125;-71
2022/06/06 05:50:38;;;;;;;24.48;13.50;;;;;;;19.97;61.03;101274.34;4898904;29;20123;-71
2022/06/06 05:53:37;;;;;;;27.25;13.35;;;;;;;19.74;61.89;101249.59;4899049;29;20533;-72
2022/06/06 05:56:30;;;;;;;24.73;12.85;;;;;;;19.85;60.77;101243.84;4898300;29;20172;-71
2022/06/06 05:58:57;;;;;;;27.33;13.02;;;;;;;20.00;60.74;101252.00;4899637;29;20134;-72
2022/06/06 06:01:50;;;;;;;26.05;13.35;;;;;;;20.17;60.68;101248.94;4898969;29;20124;-71
2022/06/06 06:04:34;;;;;;;21.67;12.85;;;;;;;20.26;60.13;101258.22;4887376;29;20072;-72
2022/06/06 06:07:29;;;;;;;25.45;13.30;;;;;;;20.09;60.21;101247.59;4880191;29;20093;-71
2022/06/06 06:10:03;;;;;;;27.00;13.40;;;;;;;19.95;60.59;101254.72;4880467;29;20041;-69
2022/06/06 06:12:40;;;;;;;27.27;13.77;;;;;;;20.43;59.16;101253.22;4877624;29;20060;-71
2022/06/06 06:15:28;;;;;;;27.05;13.85;;;;;;;20.49;58.92;101262.19;4877537;29;20545;-69
2022/06/06 06:17:55;;;;;;;26.10;13.80;;;;;;;20.31;60.11;101266.38;4877800;29;20059;-72
2022/06/06 06:20:28;;;;;;;24.55;13.35;;;;;;;19.92;60.65;101266.19;4877642;29;20056;-70
2022/06/06 06:23:01;;;;;;;23.15;13.98;;;;;;;20.92;57.98;101275.88;4878268;29;20052;-71
2022/06/06 06:25:27;;;;;;;24.38;14.85;;;;;;;20.79;58.95;101272.97;4877847;29;20092;-70
2022/06/06 06:27:58;;;;;;;28.10;15.95;;;;;;;20.98;58.99;101263.00;4924273;28;20062;-71
2022/06/06 06:30:28;;;;;;;27.40;15.32;;;;;;;20.57;60.60;101267.91;4953605;29;20043;-72
2022/06/06 06:33:21;;;;;;;25.77;14.93;;;;;;;20.97;59.37;101272.31;4979474;28;20041;-70
2022/06/06 06:36:01;;;;;;;34.38;17.17;;;;;;;20.95;59.27;101277.25;5012669;28;20641;-72
2022/06/06 06:38:49;;;;;;;26.92;15.48;;;;;;;21.07;58.86;101272.25;5000815;28;20042;-71
2022/06/06 06:41:39;;;;;;;27.23;14.40;;;;;;;21.76;56.84;101289.19;5034091;28;20042;-72
2022/06/06 06:44:11;;;;;;;24.90;14.88;;;;;;;21.19;58.46;101274.66;5033776;28;20045;-71
2022/06/06 06:46:57;;;;;;;26.00;13.30;;;;;;;21.48;58.04;101276.28;5034334;28;20075;-71
2022/06/06 06:49:40;;;;;;;21.73;11.10;;;;;;;20.11;61.51;101291.78;5033620;28;20057;-74
2022/06/06 06:52:29;;;;;;;31.00;13.98;;;;;;;20.92;58.60;101288.72;5033702;28;20501;-69
2022/06/06 06:55:30;;;;;;;24.42;13.07;;;;;;;21.26;57.41;101292.38;5033151;28;20057;-69
2022/06/06 06:58:04;;;;;;;20.58;11.15;;;;;;;20.80;58.01;101290.97;5024634;28;20025;-69
2022/06/06 07:00:41;;;;;;;19.80;11.85;;;;;;;21.57;56.45;101284.72;5001286;28;20034;-70
2022/06/06 07:09:19;;;;;;;13.48;8.90;;;;;;;20.20;57.92;101297.53;5003623;28;20100;-69
2022/06/06 07:12:32;;;;;;;15.52;8.63;;;;;;;21.46;55.52;101296.84;5003203;28;20482;-70
2022/06/06 07:15:12;;;;;;;15.05;7.97;;;;;;;22.03;53.89;101307.03;4999221;28;20042;-70
2022/06/06 07:17:43;;;;;;;14.15;8.25;;;;;;;21.80;54.70;101298.47;4985074;28;20651;-70
2022/06/06 07:20:12;;;;;;;15.65;7.85;;;;;;;21.64;53.27;101312.56;5009841;28;20038;-68
2022/06/06 07:22:59;;;;;;;12.32;6.15;;;;;;;20.71;56.73;101307.16;4999091;28;20034;-69
2022/06/06 07:25:31;;;;;;;8.50;5.63;;;;;;;20.59;56.33;101314.88;5009011;28;20038;-71
2022/06/06 07:27:56;;;;;;;7.38;4.28;;;;;;;20.43;56.10;101312.47;5007592;28;20039;-68
2022/06/06 07:30:23;;;;;;;13.85;5.47;;;;;;;21.15;53.87;101311.84;5009939;28;20032;-70
2022/06/06 07:33:21;;;;;;;8.55;4.80;;;;;;;21.13;53.53;101319.53;5008990;28;20038;-68
2022/06/06 07:36:04;;;;;;;7.07;3.53;;;;;;;20.71;54.64;101314.53;5009473;28;20034;-71
2022/06/06 07:38:43;;;;;;;13.80;3.55;;;;;;;20.51;53.81;101323.63;5009143;28;20042;-75
2022/06/06 07:41:29;;;;;;;6.50;3.67;;;;;;;21.25;53.84;101300.81;5009188;28;20048;-71
2022/06/06 07:44:16;;;;;;;7.78;2.75;;;;;;;21.59;52.77;101301.66;5009475;28;20034;-69
2022/06/06 07:46:56;;;;;;;5.93;2.80;;;;;;;20.69;53.92;101312.09;5009406;28;20041;-68
2022/06/06 07:49:42;;;;;;;11.32;2.72;;;;;;;21.17;52.76;101323.31;5005866;28;20522;-68
2022/06/06 07:52:53;;;;;;;9.70;3.25;;;;;;;21.07;52.20;101334.31;5011522;28;20089;-71
2022/06/06 07:55:21;;;;;;;10.70;2.70;;;;;;;21.52;51.11;101312.13;4901065;29;20056;-71
2022/06/06 07:57:57;;;;;;;5.20;3.08;;;;;;;21.35;51.23;101315.25;4893627;29;20139;-70
2022/06/06 08:00:25;;;;;;;4.10;2.25;;;;;;;21.76;51.06;101311.06;4892506;29;20055;-71
2022/06/06 08:03:03;;;;;;;7.88;3.30;;;;;;;20.96;51.78;101322.59;4894592;29;20085;-70
2022/06/06 08:06:08;;;;;;;5.03;2.10;;;;;;;21.02;51.41;101321.50;4894821;29;20041;-69
2022/06/06 08:09:15;;;;;;;6.78;1.77;;;;;;;21.23;50.61;101322.19;4894409;29;20124;-73
2022/06/06 08:11:56;;;;;;;2.95;1.58;;;;;;;21.60;49.03;101311.50;4894549;29;20375;-70
2022/06/06 08:14:36;;;;;;;2.67;1.38;;;;;;;21.36;49.83;101311.44;4909823;29;20052;-71
2022/06/06 08:17:15;;;;;;;6.18;2.45;;;;;;;20.94;49.81;101320.16;4892715;29;20501;-72
2022/06/06 08:20:15;;;;;;;4.50;1.35;;;;;;;21.80;49.19;101311.31;4891729;29;20089;-70
2022/06/06 08:22:42;;;;;;;3.83;1.55;;;;;;;21.83;48.36;101311.59;4892349;29;20520;-72
2022/06/06 08:25:11;;;;;;;7.32;1.58;;;;;;;21.79;48.97;101315.16;4893022;29;20044;-71
2022/06/06 08:27:37;;;;;;;5.05;1.90;;;;;;;22.12;47.77;101325.25;4893324;29;20100;-69
2022/06/06 08:30:04;;;;;;;5.50;1.75;;;;;;;22.67;47.30;101310.94;4893354;29;20041;-69
2022/06/06 08:32:30;;;;;;;4.47;1.75;;;;;;;22.29;47.11;101322.88;4943559;28;20034;-69
2022/06/06 08:34:56;;;;;;;3.58;1.52;;;;;;;21.87;47.86;101317.31;4972172;28;20478;-70
2022/06/06 08:37:33;;;;;;;3.97;1.90;;;;;;;21.45;49.42;101320.63;4971828;28;20047;-71
2022/06/06 08:40:17;;;;;;;5.35;1.58;;;;;;;21.59;49.13;101310.69;4986908;28;20126;-70
2022/06/06 08:43:01;;;;;;;2.30;1.20;;;;;;;20.72;50.02;101340.72;4991285;28;20066;-70
2022/06/06 08:45:50;;;;;;;5.03;2.30;;;;;;;21.05;49.30;101318.19;4991311;28;20133;-70
2022/06/06 08:48:53;;;;;;;6.88;1.48;;;;;;;21.76;47.97;101313.81;4991378;28;20069;-71
2022/06/06 08:51:43;;;;;;;4.75;1.63;;;;;;;21.47;48.30;101314.88;4991096;28;20074;-70
2022/06/06 08:54:33;;;;;;;4.80;1.20;;;;;;;22.07;47.21;101319.03;4991366;28;20510;-72
2022/06/06 08:57:34;;;;;;;2.87;0.80;;;;;;;21.90;46.19;101318.63;4991293;28;20170;-68
2022/06/06 09:00:05;;;;;;;;;;;;;;;22.04;45.18;101330.53;4893555;29;20444;-73
2022/06/06 09:03:03;;;;;;;5.50;0.95;;;;;;;21.64;45.11;101310.63;4890571;29;19967;-69
2022/06/06 09:05:51;;;;;;;2.33;1.20;;;;;;;21.48;45.82;101311.84;4880223;29;20468;-69
2022/06/06 09:08:28;;;;;;;5.35;1.23;;;;;;;21.20;47.05;101312.63;4880951;29;20053;-70
2022/06/06 09:11:02;;;;;;;5.40;1.80;;;;;;;21.21;47.17;101303.31;4882158;29;20044;-69
2022/06/06 09:14:05;;;;;;;3.88;1.10;;;;;;;21.26;46.93;101314.22;4883663;29;20041;-70
2022/06/06 09:17:08;;;;;;;2.42;1.10;;;;;;;21.38;47.78;101319.34;4855896;29;20045;-72
2022/06/06 09:19:47;;;;;;;4.55;1.45;;;;;;;21.43;47.01;101316.56;4854748;29;20713;-71
2022/06/06 09:22:32;;;;;;;3.85;1.67;;;;;;;21.95;45.67;101296.69;4862166;29;20049;-70
2022/06/06 09:25:05;;;;;;;5.65;1.67;;;;;;;22.64;44.55;101297.00;4855804;29;20132;-71
2022/06/06 09:27:49;;;;;;;3.38;1.58;;;;;;;22.08;45.09;101304.22;4855677;29;20407;-71
2022/06/06 09:30:29;;;;;;;3.45;1.10;;;;;;;22.47;43.19;101310.31;4868062;29;20477;-70
2022/06/06 09:33:13;;;;;;;5.78;1.00;;;;;;;21.71;44.68;101300.19;4877471;28;20037;-72
2022/06/06 09:35:47;;;;;;;2.40;1.55;;;;;;;22.30;43.71;101305.34;4975806;28;20042;-71
2022/06/06 09:38:25;;;;;;;2.05;1.02;;;;;;;22.01;42.95;101299.09;4989729;28;20034;-72
2022/06/06 09:41:18;;;;;;;4.65;0.98;;;;;;;22.53;41.41;101306.41;4989534;28;21034;-71
2022/06/06 09:43:56;;;;;;;4.03;0.85;;;;;;;22.81;42.42;101301.97;4988836;28;20051;-68
2022/06/06 09:46:46;;;;;;;2.83;1.13;;;;;;;22.25;43.38;101290.91;4983617;28;20038;-71
2022/06/06 09:49:34;;;;;;;1.92;1.10;;;;;;;21.59;43.91;101294.28;4984774;28;20034;-70
2022/06/06 09:52:14;;;;;;;3.22;0.95;;;;;;;22.19;43.07;101298.34;4979263;28;20058;-69
2022/06/06 10:00:52;;;;;;;3.80;1.27;;;;;;;22.38;41.86;101287.44;4995711;28;20162;-69
2022/06/06 10:03:42;;;;;;;1.95;1.10;;;;;;;22.15;42.91;101291.00;5000671;28;20045;-70
2022/06/06 10:06:35;;;;;;;4.68;1.00;;;;;;;22.31;43.27;101298.75;5001442;28;20191;-71
2022/06/06 10:09:13;;;;;;;6.45;1.33;;;;;;;22.02;43.83;101308.09;5002016;28;20034;-70
2022/06/06 10:12:07;;;;;;;2.80;1.00;;;;;;;21.03;45.31;101300.44;5002074;28;20052;-71
2022/06/06 10:15:00;;;;;;;2.45;1.00;;;;;;;21.38;45.43;101301.03;4943525;28;20131;-71
2022/06/06 10:17:42;;;;;;;1.83;1.00;;;;;;;22.04;42.67;101287.56;4942540;28;20401;-72
2022/06/06 10:20:47;;;;;;;2.38;0.90;;;;;;;21.35;44.52;101296.09;4945522;29;20106;-71
2022/06/06 10:23:42;;;;;;;2.00;0.95;;;;;;;21.47;43.95;101291.09;4934744;29;20035;-73
2022/06/06 10:26:27;;;;;;;3.00;0.98;;;;;;;22.20;45.65;101310.09;4952363;28;20061;-70
2022/06/06 10:29:14;;;;;;;10.88;2.47;;;;;;;23.03;45.60;101303.03;4952866;29;20043;-70
2022/06/06 10:32:20;;;;;;;5.47;2.33;;;;;;;22.68;47.71;101309.03;4952583;29;20081;-69
2022/06/06 10:34:57;;;;;;;6.00;2.05;;;;;;;21.68;49.46;101303.47;4933252;29;20069;-69
2022/06/06 10:37:51;;;;;;;6.68;1.70;;;;;;;21.77;49.58;101284.53;4932620;29;20046;-69
2022/06/06 10:40:37;;;;;;;6.07;2.05;;;;;;;21.44;50.27;101304.53;4915360;29;20055;-70
2022/06/06 10:43:28;;;;;;;6.65;2.88;;;;;;;21.46;50.09;101297.66;4913378;29;20032;-70
2022/06/06 10:45:58;;;;;;;2.70;1.67;;;;;;;22.27;47.41;101294.97;4913667;29;20091;-68
2022/06/06 10:48:51;;;;;;;3.38;1.15;;;;;;;22.00;46.79;101297.47;4913257;29;21164;-70
2022/06/06 10:51:40;;;;;;;4.18;1.45;;;;;;;21.77;48.17;101293.56;4919280;29;20161;-73
2022/06/06 10:54:43;;;;;;;3.15;1.50;;;;;;;22.57;47.44;101302.84;4930622;29;20511;-70
2022/06/06 10:57:15;;;;;;;7.68;2.78;;;;;;;22.08;47.76;101315.16;4911916;29;20055;-69
2022/06/06 10:59:49;;;;;;;6.45;2.05;;;;;;;21.42;50.48;101331.34;4901643;29;20052;-71
2022/06/06 11:02:51;;;;;;;6.40;1.17;;;;;;;18.65;58.45;101330.94;4891848;29;20115;-68
2022/06/06 11:05:34;;;;;;;3.60;0.80;;;;;;;19.22;56.12;101326.97;4912695;29;20044;-72
2022/06/06 11:08:14;;;;;;;0.85;0.57;;;;;;;18.74;56.27;101316.53;4910660;29;20064;-73
2022/06/06 11:10:58;;;;;;;2.05;0.57;;;;;;;18.44;55.84;101324.56;4913483;28;20483;-72
2022/06/06 11:13:38;;;;;;;1.25;0.60;;;;;;;18.90;56.50;101331.84;4991151;28;20034;-73
2022/06/06 11:16:14;;;;;;;3.83;1.40;;;;;;;18.28;58.59;101347.31;4991018;28;20121;-73
2022/06/06 11:19:06;;;;;;;1.30;1.00;;;;;;;19.30;56.94;101325.66;4991084;28;20401;-72
2022/06/06 11:21:51;;;;;;;1.00;0.90;;;;;;;19.29;57.31;101329.47;4974061;28;20080;-71
2022/06/06 11:24:28;;;;;;;1.45;0.95;;;;;;;19.02;59.47;101328.88;4988287;28;20038;-71
2022/06/06 11:27:17;;;;;;;3.75;1.45;;;;;;;18.94;59.65;101326.66;4991229;28;20022;-72
2022/06/06 11:30:04;;;;;;;3.28;1.30;;;;;;;19.07;59.77;101337.88;4990562;28;20521;-71
2022/06/06 11:33:03;;;;;;;0.80;0.65;;;;;;;19.20;58.88;101317.47;4989257;28;20514;-71
2022/06/06 11:36:05;;;;;;;2.45;1.30;;;;;;;19.61;56.16;101329.25;4990665;28;20514;-71
2022/06/06 11:38:55;;;;;;;0.80;0.80;;;;;;;19.51;55.91;101310.16;4991796;28;20116;-73
2022/06/06 11:41:39;;;;;;;0.88;0.88;;;;;;;20.13;54.29;101316.06;4988455;28;20077;-76
2022/06/06 11:44:08;;;;;;;3.65;1.10;;;;;;;20.71;54.09;101307.16;4991337;28;20054;-71
2022/06/06 11:46:52;;;;;;;4.07;0.82;;;;;;;20.42;54.17;101316.31;4990876;28;20501;-70
2022/06/06 11:49:39;;;;;;;2.00;0.93;;;;;;;20.65;53.79;101296.53;4988329;28;20070;-75
2022/06/06 11:52:04;;;;;;;3.20;1.20;;;;;;;20.26;54.70;101281.97;4991172;28;20046;-75
2022/06/06 11:54:36;;;;;;;3.00;0.95;;;;;;;21.02;53.36;101282.41;4992409;28;20148;-72
2022/06/06 11:57:27;;;;;;;1.50;1.00;;;;;;;21.02;52.25;101287.88;5008053;28;20038;-74
2022/06/06 12:00:11;;;;;;;3.88;1.55;;;;;;;21.53;51.19;101280.91;5009569;28;20038;-71
2022/06/06 12:03:04;;;;;;;1.80;0.90;;;;;;;21.87;50.05;101284.47;5009187;28;20037;-71
2022/06/06 12:05:35;;;;;;;3.55;1.00;;;;;;;22.30;49.28;101285.34;5012488;28;20041;-71
2022/06/06 12:08:19;;;;;;;1.98;1.02;;;;;;;21.73;50.27;101287.03;5021995;28;20393;-70
2022/06/06 12:11:03;;;;;;;3.72;1.08;;;;;;;21.18;50.79;101286.69;5014702;28;20048;-72
2022/06/06 12:13:47;;;;;;;1.38;0.70;;;;;;;21.11;50.49;101291.66;5010020;28;20141;-74
2022/06/06 12:16:39;;;;;;;2.08;0.82;;;;;;;21.66;50.16;101288.47;4999367;28;20041;-70
2022/06/06 12:19:25;;;;;;;4.78;0.82;;;;;;;21.54;50.05;101288.03;5006492;28;20077;-72
2022/06/06 12:22:19;;;;;;;0.77;0.50;;;;;;;21.66;47.55;101288.47;5009936;28;20038;-69
2022/06/06 12:25:26;;;;;;;2.72;0.30;;;;;;;22.11;47.36;101282.53;5005296;28;20030;-70
2022/06/06 12:27:57;;;;;;;1.23;0.60;;;;;;;21.72;47.07;101292.78;5009956;28;20033;-71
2022/06/06 12:30:32;;;;;;;1.45;0.60;;;;;;;22.49;46.40;101273.31;5005515;28;20069;-69
2022/06/06 12:33:09;;;;;;;3.08;0.40;;;;;;;22.67;45.49;101278.06;5009005;28;20046;-69
2022/06/06 12:35:46;;;;;;;1.00;0.47;;;;;;;22.73;45.96;101269.75;5006976;28;20033;-69